Las Vegas, Nevada
Traffic Map
Current Weather Conditions
Las Vegas, Nevada
Broken Clouds
Broken Clouds
50°
Feels Like: 50°
Wind Chill: 50° Ceiling: 5500
Heat Index: 50° Visibility: 10mi
Dew Point: 38° Wind: 17mph
Humidity: 63% Direction: 180° (S)
Pressure: 29.29in Gusts: 30mph
Raw Report DataKLAS 210256Z 18015G26KT 10SM BKN055 BKN075 10/03 A2929 RMK AO2 PK WND 19026/0254 SLP913 60003 T01000033 56028
Traffic Incident Summary
Active as of:
Severity:
Category:
InformationThere was an issue retrieving the traffic information for this location. Please try a different location or try again shortly.
Advertisements
Track Severe Weather on mobile